KGTF/GTF METAR and TAF weather

Enter ICAO airport designator
Station Type Date Time Source
KGTF METAR 2019/08/25 05:53 UTC NOAA

KGTF 250553Z 24013KT 10SM CLR 19/03 A2981 RMK AO2 SLP061 T01940028 10267 20167 50003 $


Station Type Date Time Source
KGTF Decoded METAR 2019/08/25 05:53 UTC NOAA

Station name not available
Aug 25, 2019 - 01:53 AM EDT / 2019.08.25 0553 UTC
Wind: from the WSW (240 degrees) at 15 MPH (13 KT):0
Visibility: 10 mile(s):0
Sky conditions: clear
Temperature: 66.9 F (19.4 C)
Dew Point: 37.0 F (2.8 C)
Relative Humidity: 33%
Pressure (altimeter): 29.81 in. Hg (1009 hPa)
Pressure tendency: 0.01 inches (0.3 hPa) higher than three hours ago
ob: KGTF 250553Z 24013KT 10SM CLR 19/03 A2981 RMK AO2 SLP061 T01940028 10267 20167 50003
cycle: 6

Station Type Date Time Source
KGTF TAF 2019/08/25 06:42 UTC NOAA

TAF KGTF 250540Z 2506/2606 25009KT P6SM FEW100 SCT200
FM251900 30014G22KT P6SM VCSH SCT060 BKN090 PROB30 2521/2601 VRB15G30KT -TSRA BKN050CB
FM260200 32011KT P6SM SCT045 BKN060

Example: see airport list